EST,Max TemperatureF,Mean TemperatureF,Min TemperatureF,Max Dew PointF,MeanDew PointF,Min DewpointF,Max Humidity, Mean Humidity, Min Humidity, Max Sea Level PressureIn, Mean Sea Level PressureIn, Min Sea Level PressureIn, Max VisibilityMiles, Mean VisibilityMiles, Min VisibilityMiles, Max Wind SpeedMPH, Mean Wind SpeedMPH, Max Gust SpeedMPH,PrecipitationIn, CloudCover, Events, WindDirDegrees
2014-1-1,20,16,11,14,11,6,84,76,67,30.34,30.22,30.11,10,4,1,13,4,19,T,8,Snow,86
2014-1-2,17,9,1,12,4,-6,84,77,69,30.12,29.86,29.70,10,2,0,14,10,21,0.05,8,Snow,47
2014-1-3,7,-1,-10,-6,-10,-14,79,64,49,30.41,30.15,29.79,10,8,2,20,8,25,T,4,Snow,329
2014-1-4,32,18,3,5,0,-7,69,48,26,30.32,30.19,30.09,10,10,10,20,9,28,0.00,2,,188
2014-1-5,41,26,11,33,16,3,82,60,37,30.14,29.89,29.48,10,9,4,20,7,33,0.07,6,Rain,152
2014-1-6,42,16,-11,40,10,-19,93,75,56,29.96,29.59,29.29,10,3,0,24,13,36,0.44,8,Fog-Rain-Snow,262
2014-1-7,10,-2,-15,-10,-17,-24,75,58,41,30.32,30.06,29.82,10,4,1,18,10,28,T,7,Snow,245
2014-1-8,31,18,4,7,-3,-10,76,53,29,30.45,30.36,30.17,10,9,5,14,4,18,T,6,Snow,224
2014-1-9,31,22,12,19,11,6,76,59,42,30.61,30.45,30.30,10,8,2,12,6,17,T,5,Snow,171
2014-1-10,37,31,24,35,26,19,100,88,75,30.38,30.20,29.96,10,3,0,16,8,25,0.06,8,Fog-Snow,157
2014-1-11,49,41,32,46,39,26,100,85,70,29.92,29.54,29.31,10,6,0,25,11,40,0.66,8,Fog-Rain-Snow,196
2014-1-12,33,31,28,27,24,21,85,77,69,30.02,29.78,29.52,10,6,1,23,10,35,0.04,7,Snow,260
2014-1-13,47,39,30,41,30,23,89,66,42,29.99,29.83,29.69,10,9,5,15,9,21,0.28,4,Rain,191
2014-1-14,44,36,28,40,33,25,100,88,75,29.82,29.72,29.63,10,7,1,15,5,20,0.17,7,Rain,265
2014-1-15,34,28,22,30,21,10,89,70,50,29.97,29.85,29.73,10,8,1,14,7,23,0.03,8,Snow,232
2014-1-16,26,22,18,16,10,7,68,59,50,29.96,29.88,29.83,10,10,3,15,6,22,T,5,Snow,204
2014-1-17,34,29,24,27,21,15,92,74,56,29.86,29.78,29.71,10,6,0,15,7,24,0.11,7,Fog-Snow,195
2014-1-18,27,18,8,23,10,0,92,79,66,29.92,29.81,29.74,10,4,1,14,7,19,0.02,8,Snow,259
2014-1-19,26,18,9,16,9,4,83,70,57,29.84,29.65,29.51,10,6,2,21,9,33,T,8,Snow,216
2014-1-20,29,20,11,25,17,3,85,74,63,29.93,29.67,29.49,10,5,1,21,10,29,T,8,Snow,294
2014-1-21,11,4,-4,3,-5,-11,76,66,55,30.05,29.92,29.83,10,8,1,14,8,19,T,7,Snow,16
2014-1-22,6,-2,-10,-7,-11,-14,75,62,49,30.03,29.96,29.85,10,9,2,15,6,17,T,5,Snow,325
2014-1-23,10,2,-6,0,-5,-11,79,71,63,30.34,30.03,29.85,10,4,0,20,7,24,T,8,Snow,288
2014-1-24,11,4,-4,-4,-7,-9,79,65,50,30.38,30.18,29.77,10,6,1,21,9,30,T,6,Snow,236
2014-1-25,20,13,5,15,7,-6,80,63,46,29.70,29.39,29.18,10,3,0,26,12,36,0.01,8,Snow,238
2014-1-26,29,14,-1,19,1,-8,87,77,66,29.76,29.60,29.47,10,5,0,22,10,31,T,7,Snow,221
2014-1-27,35,18,0,27,4,-9,84,67,50,30.14,29.70,29.32,10,3,0,36,14,46,T,7,Fog-Snow,268
2014-1-28,4,-3,-11,-9,-13,-16,79,65,51,30.36,30.20,30.03,10,6,0,20,7,26,T,4,Snow,257
2014-1-29,12,2,-9,-7,-11,-17,72,57,41,30.28,30.15,29.99,10,10,7,20,8,30,0.00,1,,238
2014-1-30,26,12,-2,0,-5,-9,75,49,23,30.33,30.17,29.95,10,10,10,17,8,28,0.00,1,,181
2014-1-31,33,27,21,21,10,0,81,57,33,30.17,30.04,29.88,10,9,3,14,7,23,T,7,Snow,237